Startpagina
METAR-TAF:

METAR-TAF

Vliegvelden :

Rome State Airport

Rome, Oregon, Verenigde Staten

breedte: 42-35-26N, lengte: 117-51-52W, hoogte: 1234 m

Actueel weer

Dit bericht is 49 minuten geleden gemaakt, om 04:52 UTC
Wind 3 kt uit het noordnoordoosten
Temperatuur 16°C
Vochtigheid 23%
Druk 1014 hPa

METAR: KREO 190452Z AUTO 02003KT 16/M05 A2993 RMK AO1 SLP110 T01561050

Tijdstip: 23:41 (05:41 UTC)


TAF: ontbreekt

Waarnemingen en weersverwachtingen van meer dan 4000 vliegvelden (METAR en TAF).

De beschikbare stations zijn de gele en rode punten op de kaart.

Ga met uw muis naar het station om de naam te zien.

Klik dan om waarnemingen en weersverwachtingen te zien.

kaart wijzigen: klik op de groene knoppen met een zwart kruis om in te zoomen, op de groene knop met een streepje om uit te zoomen of op de groene pijlen voor aangrenzende kaarten.


METAR-TAF: